Blaydon-on-Tyne, United Kingdom
Current Conditions -  °F | °C
As of 2:20 AM on Saturday 20 Dec 2014 (Local Time) from EGNT Reporting Station
Rain Showers Rain Showers  
Wind Chill: 32°   Ceiling: Unl
Heat Index: 43°   Visibility: 6mi
Dew Point: 37°   Wind: 29mph
Humidity: 81%   Direction: 270°W
Pressure: 29.83"   Gusts: 46mph
Location:  54.96°N, 1.72°W
Report Text: EGNT 200220Z 27025G40KT 9999 -SHRA FEW022 SCT036 06/03 Q1010
Loading
Personal Weather Stations






























Interactive Weather Map New forecast layout! Learn more

10-Day Weather Forecast

Advertisements
Track Severe Weather on mobile